Anthony, West Virginia
Current Conditions -  °F | °C
As of 11:55 AM on Saturday 25 Oct 2014 (Local Time) from KLWB Reporting Station
Clear Clear  
Wind Chill: 56°   Ceiling: Unl
Heat Index: 56°   Visibility: 10mi
Dew Point: 41°   Wind: 9mph
Humidity: 58%   Direction: 220°SW
Pressure: 30.04"   Gusts: NA
Location:  38.0307°N, 80.4756°W
Report Text: KLWB 251555Z AUTO 22008KT 10SM CLR 13/05 A3004 RMK AO2 T01330052
Loading
Personal Weather Stations






























Interactive Weather Map
Tropical Storm Tracking
New forecast layout! Learn more

10-Day Weather Forecast

Advertisements
Track Severe Weather on mobile